Flight Track Log - Related Links

Times and Time Zones

All times are in EST time to prevent confusion due to time zone crossing. See the EJA922 flight status page for this flight to view local times or setup timezone preferences in your user account.

Time Position Orientation Groundspeed Altitude Reporting Facility
EST Latitude Longitude Course Direction KTS MPH feet Rate Location/Type
Thu 11:30:22 AM 36.1072 -115.1525 281° West 182 209 3,400  Level Los Angeles Center
Thu 11:31:47 AM 36.1183 -115.2236 281° West 232 267 7,700 2,468 Climbing Los Angeles Center
Thu 11:32:43 AM 36.0933 -115.2897 245° Southwest 255 293 9,200 2,034 Climbing Los Angeles Center
Thu 11:33:45 AM 36.0211 -115.3306 205° Southwest 268 308 11,700 2,613 Climbing Los Angeles Center
Thu 11:34:47 AM 35.9433 -115.3814 208° Southwest 301 346 14,600 2,758 Climbing Los Angeles Center
Thu 11:35:49 AM 35.8722 -115.4489 218° Southwest 328 377 17,400 2,177 Climbing Los Angeles Center
Thu 11:36:51 AM 35.8708 -115.5600 269° West 327 376 19,100 2,112 Climbing Los Angeles Center
Thu 11:37:54 AM 35.9244 -115.6744 300° West 362 417 21,800 2,400 Climbing Los Angeles Center
Thu 11:38:56 AM 35.9853 -115.7772 306° West 367 422 24,100 2,177 Climbing Los Angeles Center
Thu 11:39:58 AM 36.0519 -115.8856 307° West 381 438 26,300 1,935 Climbing Los Angeles Center
Thu 11:41:00 AM 36.1167 -115.9942 306° West 390 449 28,100 1,548 Climbing Los Angeles Center
Thu 11:42:02 AM 36.1808 -116.1003 307° West 386 444 29,500 1,452 Climbing Los Angeles Center
Thu 11:43:04 AM 36.2458 -116.2086 307° West 390 449 31,100 2,081 Climbing Los Angeles Center
Thu 11:44:06 AM 36.3183 -116.3292 307° West 382 440 33,800 1,403 Climbing Los Angeles Center
Thu 11:45:08 AM 36.3811 -116.4356 306° West 383 441 34,000 96 Climbing Los Angeles Center
Thu 11:46:11 AM 36.4525 -116.5539 307° West 425 489 34,000  Level Los Angeles Center
Thu 11:47:13 AM 36.5225 -116.6747 306° West 432 497 34,000  Level Los Angeles Center
Thu 11:48:16 AM 36.5797 -116.8150 297° West 433 498 34,000  Level Los Angeles Center
Thu 11:49:17 AM 36.6125 -116.9808 284° West 443 510 34,000  Level Los Angeles Center
Thu 11:50:19 AM 36.6408 -117.1286 283° West 442 509 34,000  Level Los Angeles Center
Thu 11:51:21 AM 36.6689 -117.2783 283° West 444 511 34,000  Level Los Angeles Center
Thu 11:52:23 AM 36.6981 -117.4297 284° West 448 516 34,000  Level Los Angeles Center
Thu 11:53:26 AM 36.7261 -117.5806 283° West 450 518 34,000  Level Los Angeles Center
Thu 11:54:27 AM 36.7489 -117.6997 283° West 447 514 34,000  Level Los Angeles Center
Thu 11:55:30 AM 36.7853 -117.8997 283° West 444 511 34,000  Level Los Angeles Center
Thu 11:56:32 AM 36.8133 -118.0528 283° West 450 518 34,000  Level Los Angeles Center
Thu 11:57:35 AM 36.8444 -118.2147 284° West 469 540 34,000  Level Los Angeles Center
Thu 11:58:37 AM 36.8786 -118.4019 283° West 462 532 34,000  Level Los Angeles Center
Thu 11:59:39 AM 36.9058 -118.5589 282° West 462 532 34,000  Level Los Angeles Center
Thu 12:00:25 PM 36.9267 -118.6747 283° West 462 532 34,000  Level Oakland Center
Thu 12:01:26 PM 36.9550 -118.8294 283° West 460 529 34,000  Level Oakland Center
Thu 12:02:27 PM 36.9817 -118.9856 282° West 460 529 34,000  Level Oakland Center
Thu 12:03:29 PM 37.0086 -119.1428 282° West 464 534 34,000 -927 Level Oakland Center
Thu 12:04:30 PM 37.0358 -119.2983 282° West 462 532 32,100 -2,754 Descending Oakland Center
Thu 12:05:31 PM 37.0617 -119.4503 282° West 451 519 28,400 -4,000 Descending Oakland Center
Thu 12:06:33 PM 37.0919 -119.6308 282° West 446 513 23,900 -3,854 Descending Oakland Center
Thu 12:07:34 PM 37.1153 -119.7719 282° West 421 484 20,500 -1,918 Descending Oakland Center
Thu 12:08:35 PM 37.1358 -119.8944 282° West 416 479 20,000 -244 Descending Oakland Center
Thu 12:09:37 PM 37.1650 -120.0692 282° West 427 491 20,000  Level Oakland Center
Thu 12:10:38 PM 37.1897 -120.2181 282° West 432 497 20,000  Level Oakland Center
Thu 12:11:39 PM 37.2131 -120.3650 281° West 431 496 20,000 -977 Level Oakland Center
Thu 12:12:47 PM 37.1833 -120.5333 258° West 508 585 17,900 -1,922 Descending Northern Cal TRACON
Thu 12:13:47 PM 37.1667 -120.6667 261° West 409 471 15,900 -1,450 Descending Northern Cal TRACON
Thu 12:14:47 PM 37.1333 -120.8167 254° West 410 472 15,000 -450 Descending Northern Cal TRACON
Thu 12:15:47 PM 37.1000 -120.9667 254° West 412 474 15,000 -353 Level Northern Cal TRACON
Thu 12:16:46 PM 37.0733 -121.0756 253° West 412 474 14,300 -1,350 Descending Oakland Center
Thu 12:17:47 PM 37.0453 -121.2119 256° West 401 461 12,300 -1,902 Descending Oakland Center
Thu 12:18:49 PM 37.0431 -121.3336 269° West 357 411 10,400 -2,049 Descending Oakland Center
Thu 12:19:50 PM 37.0442 -121.4319 271° West 299 344 8,100 -2,508 Descending Oakland Center
Thu 12:20:51 PM 37.0458 -121.5192 271° West 258 297 5,300 -1,512 Descending Oakland Center
Thu 12:21:53 PM 37.0819 -121.6006 299° West 227 261 5,000 -146 Descending Oakland Center
Thu 12:22:54 PM 37.1183 -121.6522 311° West 206 237 5,000  Level Oakland Center
Thu 12:23:35 PM 37.1500 -121.6833 322° Northwest 201 231 5,000 -238 Level Northern Cal TRACON
Thu 12:24:35 PM 37.1833 -121.7333 310° West 184 212 4,600 -1,000 Descending Northern Cal TRACON
Thu 12:25:35 PM 37.2167 -121.7833 310° West 196 226 3,000 -900 Descending Northern Cal TRACON
Thu 12:26:35 PM 37.2667 -121.8167 332° Northwest 196 226 2,800 -632 Descending Northern Cal TRACON
Thu 12:27:29 PM 37.3000 -121.8500 322° Northwest 154 177 1,800 -907 Descending Northern Cal TRACON
Thu 12:28:01 PM 37.3042 -121.8692 285° West 167 192 1,500 -710 Descending Oakland Center
Thu 12:29:02 PM 37.3333 -121.9014 319° Northwest 149 171 700 9,098 Descending Oakland Center
Thu 12:30:03 PM 37.3625 -121.9325 320° Northwest 143 165 20,000 18,984 Climbing Oakland Center
Thu 12:32:00 PM 37.3627 -121.9291 North  Level Estimated

Login

Don't have an account? Register now (free) for customized features, flight alerts, and more!